»·PEaware :: N54502 KSNA-KSBD

N54502 :: KSNA-KSBD

FLIGHT INFORMATION

Flight Status: Arrived
Operator: Privately registered:
United States
More flights under this callsign
Pilot: Daniel M. (22830)
Aircraft: CESSNA 172 SKYHAWK
(C172)
More flights by this aircraft type
Origin: KSNA John Wayne-Orange Co
United States
Destination: KSBD San Bernardino Intl
United States
More flights between these airports :: More routes between these airports
Route: SLI V8 PDZ
File this flight plan on PilotEdge
Remarks: CSTP13
Altitude:
(Current/Filed)
5,000ft
Speed:
(Current/Filed)
110kts
Departed: 06-Jul-20 04:36 PM
Arrived: 06-Jul-20 05:08 PM
Distance/Time
Traveled:
41nm/0:32
Distance/Time
To Go:
Arrived

Flight Plot

Page will automatically refresh every two minutes.


Map Options




Map Legend


Flown Route
Filed Route
Departure Airport
Arrival Airport
Navaid (VOR, NDB)
Fix

Horizontal Profiles

Position Reports

Time Latitude Longitude Heading Altitude Ground
Speed
06-Jul-20 16:15 33.671974 -117.867499 206 59ft 0kts
06-Jul-20 16:16 33.671974 -117.867499 206 59ft 0kts
06-Jul-20 16:17 33.671974 -117.867499 206 59ft 0kts
06-Jul-20 16:18 33.671974 -117.867499 206 59ft 0kts
06-Jul-20 16:19 33.671974 -117.867499 206 59ft 0kts
06-Jul-20 16:20 33.671974 -117.867499 206 59ft 0kts
06-Jul-20 16:21 33.671974 -117.867499 206 59ft 0kts
06-Jul-20 16:22 33.671974 -117.867499 206 59ft 0kts
06-Jul-20 16:23 33.671974 -117.867499 206 59ft 0kts
06-Jul-20 16:24 33.671974 -117.867499 206 59ft 0kts
06-Jul-20 16:25 33.671974 -117.867499 206 59ft 0kts
06-Jul-20 16:26 33.671974 -117.867499 206 59ft 0kts
06-Jul-20 16:27 33.671974 -117.867499 206 59ft 0kts
06-Jul-20 16:28 33.673276 -117.867038 38 59ft 16kts
06-Jul-20 16:29 33.676608 -117.865500 27 59ft 14kts
06-Jul-20 16:30 33.679948 -117.863588 302 59ft 6kts
06-Jul-20 16:31 33.679977 -117.863646 298 59ft 0kts
06-Jul-20 16:32 33.679977 -117.863646 298 59ft 0kts
06-Jul-20 16:33 33.679977 -117.863646 298 59ft 0kts
06-Jul-20 16:34 33.680072 -117.863871 294 59ft 7kts
06-Jul-20 16:35 33.670676 -117.870067 208 182ft 82kts
06-Jul-20 16:36 33.651846 -117.893746 227 562ft 108kts
06-Jul-20 16:37 33.633560 -117.918469 227 1379ft 90kts
06-Jul-20 16:38 33.619339 -117.939504 248 2223ft 75kts
06-Jul-20 16:39 33.633110 -117.946664 6 2997ft 70kts
06-Jul-20 16:40 33.653846 -117.934769 28 3588ft 86kts
06-Jul-20 16:41 33.673448 -117.921271 28 4255ft 76kts
06-Jul-20 16:42 33.693779 -117.907377 28 4800ft 93kts
06-Jul-20 16:43 33.721563 -117.888901 28 4908ft 132kts
06-Jul-20 16:44 33.753485 -117.868066 28 4896ft 124kts
06-Jul-20 16:45 33.783218 -117.848511 28 4898ft 120kts
06-Jul-20 16:46 33.812360 -117.828840 28 4911ft 120kts
06-Jul-20 16:47 33.841581 -117.806649 38 4892ft 126kts
06-Jul-20 16:49 33.858157 -117.769911 66 4890ft 127kts
06-Jul-20 16:50 33.868499 -117.728966 75 4886ft 128kts
06-Jul-20 16:51 33.876766 -117.686993 72 4885ft 129kts
06-Jul-20 16:52 33.886044 -117.645129 69 4883ft 129kts
06-Jul-20 16:53 33.897003 -117.603427 65 4880ft 131kts
06-Jul-20 16:54 33.909460 -117.562036 67 4881ft 132kts
06-Jul-20 16:55 33.922349 -117.520700 60 4881ft 131kts
06-Jul-20 16:56 33.938021 -117.480731 60 4882ft 131kts
06-Jul-20 16:57 33.953361 -117.441509 60 4883ft 126kts
06-Jul-20 16:58 33.968222 -117.403543 60 4886ft 124kts
06-Jul-20 16:59 33.985370 -117.367089 52 4694ft 125kts
06-Jul-20 17:00 34.006549 -117.333922 46 4153ft 124kts
06-Jul-20 17:01 34.029330 -117.302201 46 3546ft 125kts
06-Jul-20 17:02 34.051541 -117.271531 46 2856ft 115kts
06-Jul-20 17:03 34.071195 -117.244321 46 2111ft 104kts
06-Jul-20 17:04 34.083291 -117.218385 79 2016ft 88kts
06-Jul-20 17:04 34.088909 -117.191747 34 1949ft 97kts
06-Jul-20 17:06 34.104559 -117.203723 249 1615ft 72kts
06-Jul-20 17:06 34.099232 -117.221534 254 1155ft 51kts
06-Jul-20 17:08 34.095707 -117.236000 335 1118ft 20kts
06-Jul-20 17:08 34.096700 -117.236156 43 1117ft 21kts
06-Jul-20 17:09 34.100583 -117.226728 77 1142ft 24kts

Navigation Log

Ident Type
Flight plan parsing failed, navigation log unavailable